Grand Junction, Tennessee
Current Conditions -  °F | °C
As of 11:50 AM on Thursday 29 Jan 2015 (Local Time) from KOLV Reporting Station
Broken Clouds Broken Clouds  
Wind Chill: 61°   Ceiling: 25000
Heat Index: 61°   Visibility: 8mi
Dew Point: 46°   Wind: 10mph
Humidity: 59%   Direction: 280°W
Pressure: 30.11"   Gusts: 16mph
Location:  35.05°N, 89.19°W
Report Text: KOLV 291750Z 28009G14KT 8SM FEW040 BKN250 16/08 A3011
Loading
Personal Weather Stations






























Interactive Weather Map New forecast layout! Learn more

10-Day Weather Forecast

Advertisements
Track Severe Weather on mobile